aviador You're here:

ETAD Decoded Metar

SPANGDAHLEM in GERMANY
Report Time2018-02-19 10:56:00
UTC Time2018-02-19 11:54:41
Flight Rules mvfr MVFR
Wind250° at 03 kt
W.Decomp.*RWY 23: 2.8 kt HW 1.0 kt RCW
W.Rank250° ranks 5
Current wind is below 250° avg. (6.5)
Visibility9999 m
Phenomena:N/A
Clouds:Overcast 013 Hf
Expected CloudBase > 1,200 ft AGL from Temp-Dew spread
Ceiling1,300 ft
Temp-1°C (ISA -14)
Dew Point-4°C (80% RH)
AAT-4.6°C
QNH1019 hPa
Density Alt-604 ft
Elevation1,198 ft
Report Wrong Elevation
Raw Report
ETAD 191056Z AUTO 25003KT 9999 OVC013 M01/M04 A3008 RMK AO2 SLP200
T10071039 TSNO $=

Extra information for ETAD:More info

Metar Taf Metar & Taf Last 4 Metars F.Rules Stats Wind Profile Meteogram Temp Stats Airport Information Weather charts Add Link Nearby VenuesMetar ALERT Operation Metar Decoded Social comments